YBBN/BNE METAR and TAF weather

Enter ICAO airport designator
Station Type Date Time Source
YBBN METAR 2019/12/06 02:00 UTC NOAA

YBBN 060200Z 05010KT CAVOK 32/15 Q1008


Station Type Date Time Source
YBBN Decoded METAR 2019/12/06 02:00 UTC NOAA

Brisbane Airport M. O, Australia (YBBN) 27-23S 153-06E 5M
Dec 05, 2019 - 09:00 PM EST / 2019.12.06 0200 UTC
Wind: from the NE (050 degrees) at 12 MPH (10 KT):0
Visibility: greater than 7 mile(s):0
Temperature: 89 F (32 C)
Dew Point: 59 F (15 C)
Relative Humidity: 35%
Pressure (altimeter): 29.77 in. Hg (1008 hPa)
ob: YBBN 060200Z 05010KT CAVOK 32/15 Q1008
cycle: 2

Station Type Date Time Source
YBBN TAF 2019/12/05 18:35 UTC NOAA

TAF YBBN 051703Z 0518/0700 23006KT 9000 FU NSC
FM052200 35008KT 9000 FU NSC
FM060200 02017KT CAVOK
FM061000 35010KT 9000 FU FEW010

Example: see airport list